KDGW

Converse County Airport

Douglas, Wyoming, USA
METAR KDGW 190653Z AUTO VRB03KT 10SM CLR 09/M06 A2982 RMK AO2 SLP069 T00941056 401501056
Observed Flight Rules
Jan-19 @ 06:53 UTC (28 minutes ago) Visual Flight Rules
Wind Visibility Clouds
Variable at 3 knots 10 miles
  • Clear skies
Temperatures Readings
Current 9°C / 48°F
Dewpoint -6°C / 21°F
Humidity 34%
Altimeter 29.82" Hg
Pressure 1006.9 hPa
Elevation 1499
METAR KDGW 190653Z AUTO VRB03KT 10SM CLR 09/M06 A2982 RMK AO2 SLP069 T00941056 401501056
Observed Flight Rules
Jan-19 @ 06:53 UTC
(28 minutes ago)
VFR
Wind Visibility
Variable at 3 knots 10 miles
Clouds
  • Clear skies
Temperature Dewpoint
9°C / 48°F -6°C / 21°F
Humidity Altimeter Pressure
34% 29.82" Hg 1006.9 hPa